0352 UTC 04 December 2016 found at http://aviationweather.gov/adds/metars/
 
METAR text: KAFF 040258Z AUTO 36006KT 10SM CLR M06/M12 A3001 RMK AO2 SLP217 T10611125 52017
Conditions at: KAFF (USAF ACADEMY/COS, CO, US) observed 0258 UTC 04 December 2016
Temperature: -6.1°C (21°F)
Dewpoint: -12.5°C (10°F) [RH = 60%]
Pressure (altimeter): 30.01 inches Hg (1016.3 mb[Sea-level pressure: 1021.7 mb]
Winds: from the N (360 degrees) at 7 MPH (6 knots; 3.1 m/s)
Visibility: 10 or more miles (16+ km)
Ceiling: at least 12,000 feet AGL
Clouds: sky clear below 12,000 feet AGL
Weather: automated observation with no human augmentation;
there may or may not be significant weather present at this time

METAR text: KAFF 040158Z AUTO 36008KT 10SM CLR M05/M12 A3000 RMK AO2 SLP214 T10491118
Conditions at: KAFF (USAF ACADEMY/COS, CO, US) observed 0158 UTC 04 December 2016
Temperature: -4.9°C (23°F)
Dewpoint: -11.8°C (11°F) [RH = 58%]
Pressure (altimeter): 30.00 inches Hg (1016.0 mb[Sea-level pressure: 1021.4 mb]
Winds: from the N (360 degrees) at 9 MPH (8 knots; 4.2 m/s)
Visibility: 10 or more miles (16+ km)
Ceiling: at least 12,000 feet AGL
Clouds: sky clear below 12,000 feet AGL
Weather: automated observation with no human augmentation;
there may or may not be significant weather present at this time

METAR text: KAFF 040058Z AUTO 35008KT 10SM CLR M04/M13 A2997 RMK AO2 SLP197 T10361128
Conditions at: KAFF (USAF ACADEMY/COS, CO, US) observed 0058 UTC 04 December 2016
Temperature: -3.6°C (26°F)
Dewpoint: -12.8°C (9°F) [RH = 49%]
Pressure (altimeter): 29.97 inches Hg (1015.0 mb[Sea-level pressure: 1019.7 mb]
Winds: from the N (350 degrees) at 9 MPH (8 knots; 4.2 m/s)
Visibility: 10 or more miles (16+ km)
Ceiling: at least 12,000 feet AGL
Clouds: sky clear below 12,000 feet AGL
Weather: automated observation with no human augmentation;
there may or may not be significant weather present at this time

METAR text: KAFF 032358Z AUTO 35006KT 10SM FEW080 00/M13 A2995 RMK AO2 SLP190 T10011133 10055 21007 53013
Conditions at: KAFF (USAF ACADEMY/COS, CO, US) observed 2358 UTC 03 December 2016
Temperature: -0.1°C (32°F)
Dewpoint: -13.3°C (8°F) [RH = 36%]
Pressure (altimeter): 29.95 inches Hg (1014.3 mb[Sea-level pressure: 1019.0 mb]
Winds: from the N (350 degrees) at 7 MPH (6 knots; 3.1 m/s)
Visibility: 10 or more miles (16+ km)
Ceiling: at least 12,000 feet AGL
Clouds: few clouds at 8000 feet AGL
Weather: automated observation with no human augmentation;
there may or may not be significant weather present at this time

METAR text: KAFF 032258Z AUTO 01009KT 10SM BKN100 04/M13 A2993 RMK AO2 SLP165 T00411130
Conditions at: KAFF (USAF ACADEMY/COS, CO, US) observed 2258 UTC 03 December 2016
Temperature: 4.1°C (39°F)
Dewpoint: -13.0°C (9°F) [RH = 27%]
Pressure (altimeter): 29.93 inches Hg (1013.6 mb[Sea-level pressure: 1016.5 mb]
Winds: from the N (10 degrees) at 10 MPH (9 knots; 4.7 m/s)
Visibility: 10 or more miles (16+ km)
Ceiling: 10000 feet AGL
Clouds: broken clouds at 10000 feet AGL
Weather: automated observation with no human augmentation;
there may or may not be significant weather present at this time

METAR text: KAFF 032158Z AUTO VRB03KT 10SM CLR 05/M13 A2991 RMK AO2 SLP158 T00501129
Conditions at: KAFF (USAF ACADEMY/COS, CO, US) observed 2158 UTC 03 December 2016
Temperature: 5.0°C (41°F)
Dewpoint: -12.9°C (9°F) [RH = 26%]
Pressure (altimeter): 29.91 inches Hg (1013.0 mb[Sea-level pressure: 1015.8 mb]
Winds: variable direction winds at 3 MPH (3 knots; 1.6 m/s)
Visibility: 10 or more miles (16+ km)
Ceiling: at least 12,000 feet AGL
Clouds: sky clear below 12,000 feet AGL
Weather: automated observation with no human augmentation;
there may or may not be significant weather present at this time

METAR text: KAFF 032058Z AUTO 35009KT 10SM FEW140 05/M12 A2991 RMK AO2 SLP152 T00471117 56011
Conditions at: KAFF (USAF ACADEMY/COS, CO, US) observed 2058 UTC 03 December 2016
Temperature: 4.7°C (40°F)
Dewpoint: -11.7°C (11°F) [RH = 29%]
Pressure (altimeter): 29.91 inches Hg (1013.0 mb[Sea-level pressure: 1015.2 mb]
Winds: from the N (350 degrees) at 10 MPH (9 knots; 4.7 m/s)
Visibility: 10 or more miles (16+ km)
Ceiling: at least 12,000 feet AGL
Clouds: few clouds at 14000 feet AGL
Weather: automated observation with no human augmentation;
there may or may not be significant weather present at this time

METAR text: KAFF 031958Z AUTO 29008KT 10SM SCT100 SCT130 04/M13 A2991 RMK AO2 SLP152 T00441135
Conditions at: KAFF (USAF ACADEMY/COS, CO, US) observed 1958 UTC 03 December 2016
Temperature: 4.4°C (40°F)
Dewpoint: -13.5°C (8°F) [RH = 26%]
Pressure (altimeter): 29.91 inches Hg (1013.0 mb[Sea-level pressure: 1015.2 mb]
Winds: from the WNW (290 degrees) at 9 MPH (8 knots; 4.2 m/s)
Visibility: 10 or more miles (16+ km)
Ceiling: at least 12,000 feet AGL
Clouds: scattered clouds at 10000 feet AGL
scattered clouds at 13000 feet AGL
Weather: automated observation with no human augmentation;
there may or may not be significant weather present at this time

METAR text: KAFF 031858Z AUTO 16003KT 10SM CLR 02/M07 A2992 RMK AO2 SLP156 T00241069
Conditions at: KAFF (USAF ACADEMY/COS, CO, US) observed 1858 UTC 03 December 2016
Temperature: 2.4°C (36°F)
Dewpoint: -6.9°C (20°F) [RH = 50%]
Pressure (altimeter): 29.92 inches Hg (1013.3 mb[Sea-level pressure: 1015.6 mb]
Winds: from the SSE (160 degrees) at 3 MPH (3 knots; 1.6 m/s)
Visibility: 10 or more miles (16+ km)
Ceiling: at least 12,000 feet AGL
Clouds: sky clear below 12,000 feet AGL
Weather: automated observation with no human augmentation;
there may or may not be significant weather present at this time

METAR text: KAFF 031758Z AUTO 00000KT 10SM CLR M01/M06 A2995 RMK AO2 SLP178 T10101060 11010 21094 56013
Conditions at: KAFF (USAF ACADEMY/COS, CO, US) observed 1758 UTC 03 December 2016
Temperature: -1.0°C (30°F)
Dewpoint: -6.0°C (21°F) [RH = 69%]
Pressure (altimeter): 29.95 inches Hg (1014.3 mb[Sea-level pressure: 1017.8 mb]
Winds: calm
Visibility: 10 or more miles (16+ km)
Ceiling: at least 12,000 feet AGL
Clouds: sky clear below 12,000 feet AGL
Weather: automated observation with no human augmentation;
there may or may not be significant weather present at this time

METAR text: KAFF 031658Z AUTO 21004KT 10SM FEW004 M04/M07 A2997 RMK AO2 SLP197 T10451068
Conditions at: KAFF (USAF ACADEMY/COS, CO, US) observed 1658 UTC 03 December 2016
Temperature: -4.5°C (24°F)
Dewpoint: -6.8°C (20°F) [RH = 84%]
Pressure (altimeter): 29.97 inches Hg (1015.0 mb[Sea-level pressure: 1019.7 mb]
Winds: from the SSW (210 degrees) at 5 MPH (4 knots; 2.1 m/s)
Visibility: 10 or more miles (16+ km)
Ceiling: at least 12,000 feet AGL
Clouds: few clouds at 400 feet AGL
Weather: automated observation with no human augmentation;
there may or may not be significant weather present at this time

METAR text: KAFF 031558Z 00000KT 10SM SCT004 M07/M08 A2998 RMK AO2A SLP207 T10661079
Conditions at: KAFF (USAF ACADEMY/COS, CO, US) observed 1558 UTC 03 December 2016
Temperature: -6.6°C (20°F)
Dewpoint: -7.9°C (18°F) [RH = 90%]
Pressure (altimeter): 29.98 inches Hg (1015.3 mb[Sea-level pressure: 1020.7 mb]
Winds: calm
Visibility: 10 or more miles (16+ km)
Ceiling: at least 12,000 feet AGL
Clouds: scattered clouds at 400 feet AGL
Weather: no significant weather observed at this time

METAR text: KAFF 031543Z 00000KT 9SM SCT004 M06/M08 A2998 RMK AO2A
Conditions at: KAFF (USAF ACADEMY/COS, CO, US) observed 1543 UTC 03 December 2016
Temperature: -6.0°C (21°F)
Dewpoint: -8.0°C (18°F) [RH = 86%]
Pressure (altimeter): 29.98 inches Hg (1015.3 mb)
Winds: calm
Visibility: 9 miles (14 km)
Ceiling: at least 12,000 feet AGL
Clouds: scattered clouds at 400 feet AGL
Weather: no significant weather observed at this time

METAR text: KAFF 031458Z AUTO 06006KT 9SM OVC004 M07/M08 A2999 RMK AO2 SLP210 T10671078 57007
Conditions at: KAFF (USAF ACADEMY/COS, CO, US) observed 1458 UTC 03 December 2016
Temperature: -6.7°C (20°F)
Dewpoint: -7.8°C (18°F) [RH = 92%]
Pressure (altimeter): 29.99 inches Hg (1015.7 mb[Sea-level pressure: 1021.0 mb]
Winds: from the ENE (60 degrees) at 7 MPH (6 knots; 3.1 m/s)
Visibility: 9 miles (14 km)
Ceiling: 400 feet AGL
Clouds: overcast cloud deck at 400 feet AGL
Weather: automated observation with no human augmentation;
there may or may not be significant weather present at this time

METAR text: KAFF 031453Z AUTO 05003KT 9SM OVC004 M07/M08 A3000 RMK AO2
Conditions at: KAFF (USAF ACADEMY/COS, CO, US) observed 1453 UTC 03 December 2016
Temperature: -7.0°C (19°F)
Dewpoint: -8.0°C (18°F) [RH = 93%]
Pressure (altimeter): 30.00 inches Hg (1016.0 mb)
Winds: from the NE (50 degrees) at 3 MPH (3 knots; 1.6 m/s)
Visibility: 9 miles (14 km)
Ceiling: 400 feet AGL
Clouds: overcast cloud deck at 400 feet AGL
Weather: automated observation with no human augmentation;
there may or may not be significant weather present at this time

METAR text: KAFF 031358Z AUTO 00000KT 10SM OVC006 M07/M08 A3000 RMK AO2 SLP214 T10691082
Conditions at: KAFF (USAF ACADEMY/COS, CO, US) observed 1358 UTC 03 December 2016
Temperature: -6.9°C (20°F)
Dewpoint: -8.2°C (17°F) [RH = 90%]
Pressure (altimeter): 30.00 inches Hg (1016.0 mb[Sea-level pressure: 1021.4 mb]
Winds: calm
Visibility: 10 or more miles (16+ km)
Ceiling: 600 feet AGL
Clouds: overcast cloud deck at 600 feet AGL
Weather: automated observation with no human augmentation;
there may or may not be significant weather present at this time

METAR text: KAFF 031303Z AUTO 15003KT 10SM OVC006 M07/M08 A3001 RMK AO2
Conditions at: KAFF (USAF ACADEMY/COS, CO, US) observed 1303 UTC 03 December 2016
Temperature: -7.0°C (19°F)
Dewpoint: -8.0°C (18°F) [RH = 93%]
Pressure (altimeter): 30.01 inches Hg (1016.3 mb)
Winds: from the SSE (150 degrees) at 3 MPH (3 knots; 1.6 m/s)
Visibility: 10 or more miles (16+ km)
Ceiling: 600 feet AGL
Clouds: overcast cloud deck at 600 feet AGL
Weather: automated observation with no human augmentation;
there may or may not be significant weather present at this time

METAR text: KAFF 031258Z AUTO 14005KT 10SM OVC007 M07/M08 A3001 RMK AO2 SLP217 T10671081
Conditions at: KAFF (USAF ACADEMY/COS, CO, US) observed 1258 UTC 03 December 2016
Temperature: -6.7°C (20°F)
Dewpoint: -8.1°C (17°F) [RH = 90%]
Pressure (altimeter): 30.01 inches Hg (1016.3 mb[Sea-level pressure: 1021.7 mb]
Winds: from the SE (140 degrees) at 6 MPH (5 knots; 2.6 m/s)
Visibility: 10 or more miles (16+ km)
Ceiling: 700 feet AGL
Clouds: overcast cloud deck at 700 feet AGL
Weather: automated observation with no human augmentation;
there may or may not be significant weather present at this time

METAR text: KAFF 031158Z AUTO 00000KT 10SM OVC008 M10/M11 A3002 RMK AO2 SLP227 70002 T10961112 11056 21098 57016
Conditions at: KAFF (USAF ACADEMY/COS, CO, US) observed 1158 UTC 03 December 2016
Temperature: -9.6°C (15°F)
Dewpoint: -11.2°C (12°F) [RH = 88%]
Pressure (altimeter): 30.02 inches Hg (1016.7 mb[Sea-level pressure: 1022.7 mb]
Winds: calm
Visibility: 10 or more miles (16+ km)
Ceiling: 800 feet AGL
Clouds: overcast cloud deck at 800 feet AGL
Weather: automated observation with no human augmentation;
there may or may not be significant weather present at this time

METAR text: KAFF 031133Z AUTO 00000KT 10SM BKN009 M08/M09 A3003 RMK AO2 BKN V SCT
Conditions at: KAFF (USAF ACADEMY/COS, CO, US) observed 1133 UTC 03 December 2016
Temperature: -8.0°C (18°F)
Dewpoint: -9.0°C (16°F) [RH = 92%]
Pressure (altimeter): 30.03 inches Hg (1017.0 mb)
Winds: calm
Visibility: 10 or more miles (16+ km)
Ceiling: 900 feet AGL
Clouds: broken clouds at 900 feet AGL
Weather: automated observation with no human augmentation;
there may or may not be significant weather present at this time

METAR text: KAFF 031058Z AUTO 00000KT 10SM CLR M08/M09 A3003 RMK AO2 SLP225 T10781095
Conditions at: KAFF (USAF ACADEMY/COS, CO, US) observed 1058 UTC 03 December 2016
Temperature: -7.8°C (18°F)
Dewpoint: -9.5°C (15°F) [RH = 88%]
Pressure (altimeter): 30.03 inches Hg (1017.0 mb[Sea-level pressure: 1022.5 mb]
Winds: calm
Visibility: 10 or more miles (16+ km)
Ceiling: at least 12,000 feet AGL
Clouds: sky clear below 12,000 feet AGL
Weather: automated observation with no human augmentation;
there may or may not be significant weather present at this time

METAR text: KAFF 030958Z AUTO 00000KT 10SM FEW024 M09/M11 A3006 RMK AO2 PRESFR SLP235 T10891111
Conditions at: KAFF (USAF ACADEMY/COS, CO, US) observed 0958 UTC 03 December 2016
Temperature: -8.9°C (16°F)
Dewpoint: -11.1°C (12°F) [RH = 84%]
Pressure (altimeter): 30.06 inches Hg (1018.0 mb[Sea-level pressure: 1023.5 mb]
Winds: calm
Visibility: 10 or more miles (16+ km)
Ceiling: at least 12,000 feet AGL
Clouds: few clouds at 2400 feet AGL
Weather: automated observation with no human augmentation;
there may or may not be significant weather present at this time

METAR text: KAFF 030938Z AUTO 00000KT 10SM SCT024 M07/M09 A3008 RMK AO2
Conditions at: KAFF (USAF ACADEMY/COS, CO, US) observed 0938 UTC 03 December 2016
Temperature: -7.0°C (19°F)
Dewpoint: -9.0°C (16°F) [RH = 86%]
Pressure (altimeter): 30.08 inches Hg (1018.7 mb)
Winds: calm
Visibility: 10 or more miles (16+ km)
Ceiling: at least 12,000 feet AGL
Clouds: scattered clouds at 2400 feet AGL
Weather: automated observation with no human augmentation;
there may or may not be significant weather present at this time

METAR text: KAFF 030923Z AUTO 15004KT 10SM BKN023 M06/M09 A3007 RMK AO2 BKN V SCT
Conditions at: KAFF (USAF ACADEMY/COS, CO, US) observed 0923 UTC 03 December 2016
Temperature: -6.0°C (21°F)
Dewpoint: -9.0°C (16°F) [RH = 79%]
Pressure (altimeter): 30.07 inches Hg (1018.4 mb)
Winds: from the SSE (150 degrees) at 5 MPH (4 knots; 2.1 m/s)
Visibility: 10 or more miles (16+ km)
Ceiling: 2300 feet AGL
Clouds: broken clouds at 2300 feet AGL
Weather: automated observation with no human augmentation;
there may or may not be significant weather present at this time

METAR text: KAFF 030858Z AUTO 18003KT 10SM SCT024 M07/M09 A3007 RMK AO2 SLP233 T10691095 57017
Conditions at: KAFF (USAF ACADEMY/COS, CO, US) observed 0858 UTC 03 December 2016
Temperature: -6.9°C (20°F)
Dewpoint: -9.5°C (15°F) [RH = 82%]
Pressure (altimeter): 30.07 inches Hg (1018.4 mb[Sea-level pressure: 1023.3 mb]
Winds: from the S (180 degrees) at 3 MPH (3 knots; 1.6 m/s)
Visibility: 10 or more miles (16+ km)
Ceiling: at least 12,000 feet AGL
Clouds: scattered clouds at 2400 feet AGL
Weather: automated observation with no human augmentation;
there may or may not be significant weather present at this time

METAR text: KAFF 030848Z AUTO 14005KT 10SM SCT024 M07/M09 A3008 RMK AO2
Conditions at: KAFF (USAF ACADEMY/COS, CO, US) observed 0848 UTC 03 December 2016
Temperature: -7.0°C (19°F)
Dewpoint: -9.0°C (16°F) [RH = 86%]
Pressure (altimeter): 30.08 inches Hg (1018.7 mb)
Winds: from the SE (140 degrees) at 6 MPH (5 knots; 2.6 m/s)
Visibility: 10 or more miles (16+ km)
Ceiling: at least 12,000 feet AGL
Clouds: scattered clouds at 2400 feet AGL
Weather: automated observation with no human augmentation;
there may or may not be significant weather present at this time

METAR text: KAFF 030758Z AUTO 14006KT 10SM OVC027 M06/M09 A3010 RMK AO2 SLP238 T10561086
Conditions at: KAFF (USAF ACADEMY/COS, CO, US) observed 0758 UTC 03 December 2016
Temperature: -5.6°C (22°F)
Dewpoint: -8.6°C (17°F) [RH = 79%]
Pressure (altimeter): 30.10 inches Hg (1019.4 mb[Sea-level pressure: 1023.8 mb]
Winds: from the SE (140 degrees) at 7 MPH (6 knots; 3.1 m/s)
Visibility: 10 or more miles (16+ km)
Ceiling: 2700 feet AGL
Clouds: overcast cloud deck at 2700 feet AGL
Weather: automated observation with no human augmentation;
there may or may not be significant weather present at this time

METAR text: KAFF 030658Z AUTO 14004KT 10SM OVC029 M06/M09 A3012 RMK AO2 SLP251 T10641086 410201119
Conditions at: KAFF (USAF ACADEMY/COS, CO, US) observed 0658 UTC 03 December 2016
Temperature: -6.4°C (20°F)
Dewpoint: -8.6°C (17°F) [RH = 84%]
Pressure (altimeter): 30.12 inches Hg (1020.1 mb[Sea-level pressure: 1025.1 mb]
Winds: from the SE (140 degrees) at 5 MPH (4 knots; 2.1 m/s)
Visibility: 10 or more miles (16+ km)
Ceiling: 2900 feet AGL
Clouds: overcast cloud deck at 2900 feet AGL
Weather: automated observation with no human augmentation;
there may or may not be significant weather present at this time

METAR text: KAFF 030558Z AUTO 00000KT 10SM OVC028 M06/M08 A3014 RMK AO2 SLP252 60000 T10601078 11050 21066 57003
Conditions at: KAFF (USAF ACADEMY/COS, CO, US) observed 0558 UTC 03 December 2016
Temperature: -6.0°C (21°F)
Dewpoint: -7.8°C (18°F) [RH = 87%]
Pressure (altimeter): 30.14 inches Hg (1020.7 mb[Sea-level pressure: 1025.2 mb]
Winds: calm
Visibility: 10 or more miles (16+ km)
Ceiling: 2800 feet AGL
Clouds: overcast cloud deck at 2800 feet AGL
Weather: automated observation with no human augmentation;
there may or may not be significant weather present at this time

METAR text: KAFF 030528Z AUTO 17003KT 10SM OVC029 M06/M08 A3014 RMK AO2
Conditions at: KAFF (USAF ACADEMY/COS, CO, US) observed 0528 UTC 03 December 2016
Temperature: -6.0°C (21°F)
Dewpoint: -8.0°C (18°F) [RH = 86%]
Pressure (altimeter): 30.14 inches Hg (1020.7 mb)
Winds: from the S (170 degrees) at 3 MPH (3 knots; 1.6 m/s)
Visibility: 10 or more miles (16+ km)
Ceiling: 2900 feet AGL
Clouds: overcast cloud deck at 2900 feet AGL
Weather: automated observation with no human augmentation;
there may or may not be significant weather present at this time

METAR text: KAFF 030518Z AUTO 17003KT 10SM OVC029 M06/M08 A3014 RMK AO2
Conditions at: KAFF (USAF ACADEMY/COS, CO, US) observed 0518 UTC 03 December 2016
Temperature: -6.0°C (21°F)
Dewpoint: -8.0°C (18°F) [RH = 86%]
Pressure (altimeter): 30.14 inches Hg (1020.7 mb)
Winds: from the S (170 degrees) at 3 MPH (3 knots; 1.6 m/s)
Visibility: 10 or more miles (16+ km)
Ceiling: 2900 feet AGL
Clouds: overcast cloud deck at 2900 feet AGL
Weather: automated observation with no human augmentation;
there may or may not be significant weather present at this time

METAR text: KAFF 030458Z AUTO 15003KT 10SM FEW015 OVC031 M06/M08 A3014 RMK AO2 SLP252 T10651081
Conditions at: KAFF (USAF ACADEMY/COS, CO, US) observed 0458 UTC 03 December 2016
Temperature: -6.5°C (20°F)
Dewpoint: -8.1°C (17°F) [RH = 88%]
Pressure (altimeter): 30.14 inches Hg (1020.7 mb[Sea-level pressure: 1025.2 mb]
Winds: from the SSE (150 degrees) at 3 MPH (3 knots; 1.6 m/s)
Visibility: 10 or more miles (16+ km)
Ceiling: 3100 feet AGL
Clouds: few clouds at 1500 feet AGL
overcast cloud deck at 3100 feet AGL
Weather: automated observation with no human augmentation;
there may or may not be significant weather present at this time

METAR text: KAFF 030438Z AUTO 14003KT 10SM SCT014 OVC034 M06/M08 A3014 RMK AO2
Conditions at: KAFF (USAF ACADEMY/COS, CO, US) observed 0438 UTC 03 December 2016
Temperature: -6.0°C (21°F)
Dewpoint: -8.0°C (18°F) [RH = 86%]
Pressure (altimeter): 30.14 inches Hg (1020.7 mb)
Winds: from the SE (140 degrees) at 3 MPH (3 knots; 1.6 m/s)
Visibility: 10 or more miles (16+ km)
Ceiling: 3400 feet AGL
Clouds: scattered clouds at 1400 feet AGL
overcast cloud deck at 3400 feet AGL
Weather: automated observation with no human augmentation;
there may or may not be significant weather present at this time

METAR text: KAFF 030433Z AUTO 18004KT 10SM BKN014 BKN034 OVC140 M07/M08 A3014 RMK AO2 CIG 014V023 BKN014 V SCT
Conditions at: KAFF (USAF ACADEMY/COS, CO, US) observed 0433 UTC 03 December 2016
Temperature: -7.0°C (19°F)
Dewpoint: -8.0°C (18°F) [RH = 93%]
Pressure (altimeter): 30.14 inches Hg (1020.7 mb)
Winds: from the S (180 degrees) at 5 MPH (4 knots; 2.1 m/s)
Visibility: 10 or more miles (16+ km)
Ceiling: 1400 feet AGL
Clouds: broken clouds at 1400 feet AGL
broken clouds at 3400 feet AGL
overcast cloud deck at 14000 feet AGL
Weather: automated observation with no human augmentation;
there may or may not be significant weather present at this time

METAR text: KAFF 030428Z AUTO 17004KT 10SM BKN014 BKN023 OVC034 M06/M08 A3014 RMK AO2 CIG 013V023 BKN014 V SCT
Conditions at: KAFF (USAF ACADEMY/COS, CO, US) observed 0428 UTC 03 December 2016
Temperature: -6.0°C (21°F)
Dewpoint: -8.0°C (18°F) [RH = 86%]
Pressure (altimeter): 30.14 inches Hg (1020.7 mb)
Winds: from the S (170 degrees) at 5 MPH (4 knots; 2.1 m/s)
Visibility: 10 or more miles (16+ km)
Ceiling: 1400 feet AGL
Clouds: broken clouds at 1400 feet AGL
broken clouds at 2300 feet AGL
overcast cloud deck at 3400 feet AGL
Weather: automated observation with no human augmentation;
there may or may not be significant weather present at this time

METAR text: KAFF 030423Z AUTO 15004KT 10SM SCT013 BKN023 OVC034 M06/M08 A3014 RMK AO2 CIG 013V023
Conditions at: KAFF (USAF ACADEMY/COS, CO, US) observed 0423 UTC 03 December 2016
Temperature: -6.0°C (21°F)
Dewpoint: -8.0°C (18°F) [RH = 86%]
Pressure (altimeter): 30.14 inches Hg (1020.7 mb)
Winds: from the SSE (150 degrees) at 5 MPH (4 knots; 2.1 m/s)
Visibility: 10 or more miles (16+ km)
Ceiling: 2300 feet AGL
Clouds: scattered clouds at 1300 feet AGL
broken clouds at 2300 feet AGL
overcast cloud deck at 3400 feet AGL
Weather: automated observation with no human augmentation;
there may or may not be significant weather present at this time

METAR text: KAFF 030413Z AUTO 17003KT 10SM BKN014 BKN022 OVC035 M06/M08 A3014 RMK AO2 CIG 014V023 BKN014 V SCT
Conditions at: KAFF (USAF ACADEMY/COS, CO, US) observed 0413 UTC 03 December 2016
Temperature: -6.0°C (21°F)
Dewpoint: -8.0°C (18°F) [RH = 86%]
Pressure (altimeter): 30.14 inches Hg (1020.7 mb)
Winds: from the S (170 degrees) at 3 MPH (3 knots; 1.6 m/s)
Visibility: 10 or more miles (16+ km)
Ceiling: 1400 feet AGL
Clouds: broken clouds at 1400 feet AGL
broken clouds at 2200 feet AGL
overcast cloud deck at 3500 feet AGL
Weather: automated observation with no human augmentation;
there may or may not be significant weather present at this time

METAR text: KAFF 030403Z AUTO 17004KT 10SM SCT014 OVC023 M06/M08 A3015 RMK AO2 CIG 014V023
Conditions at: KAFF (USAF ACADEMY/COS, CO, US) observed 0403 UTC 03 December 2016
Temperature: -6.0°C (21°F)
Dewpoint: -8.0°C (18°F) [RH = 86%]
Pressure (altimeter): 30.15 inches Hg (1021.1 mb)
Winds: from the S (170 degrees) at 5 MPH (4 knots; 2.1 m/s)
Visibility: 10 or more miles (16+ km)
Ceiling: 2300 feet AGL
Clouds: scattered clouds at 1400 feet AGL
overcast cloud deck at 2300 feet AGL
Weather: automated observation with no human augmentation;
there may or may not be significant weather present at this time

METAR text: KAFF 030358Z AUTO 16004KT 10SM BKN014 OVC022 M06/M08 A3014 RMK AO2 CIG 014V022 SLP258 T10591079
Conditions at: KAFF (USAF ACADEMY/COS, CO, US) observed 0358 UTC 03 December 2016
Temperature: -5.9°C (21°F)
Dewpoint: -7.9°C (18°F) [RH = 86%]
Pressure (altimeter): 30.14 inches Hg (1020.7 mb[Sea-level pressure: 1025.8 mb]
Winds: from the SSE (160 degrees) at 5 MPH (4 knots; 2.1 m/s)
Visibility: 10 or more miles (16+ km)
Ceiling: 1400 feet AGL
Clouds: broken clouds at 1400 feet AGL
overcast cloud deck at 2200 feet AGL
Weather: automated observation with no human augmentation;
there may or may not be significant weather present at this time

METAR text: KAFF 030343Z AUTO 18004KT 10SM SCT013 OVC022 M05/M07 A3015 RMK AO2 CIG 013V022
Conditions at: KAFF (USAF ACADEMY/COS, CO, US) observed 0343 UTC 03 December 2016
Temperature: -5.0°C (23°F)
Dewpoint: -7.0°C (19°F) [RH = 86%]
Pressure (altimeter): 30.15 inches Hg (1021.1 mb)
Winds: from the S (180 degrees) at 5 MPH (4 knots; 2.1 m/s)
Visibility: 10 or more miles (16+ km)
Ceiling: 2200 feet AGL
Clouds: scattered clouds at 1300 feet AGL
overcast cloud deck at 2200 feet AGL
Weather: automated observation with no human augmentation;
there may or may not be significant weather present at this time

METAR text: KAFF 030318Z AUTO 15004KT 10SM BKN013 OVC021 M05/M07 A3015 RMK AO2 CIG 013V018
Conditions at: KAFF (USAF ACADEMY/COS, CO, US) observed 0318 UTC 03 December 2016
Temperature: -5.0°C (23°F)
Dewpoint: -7.0°C (19°F) [RH = 86%]
Pressure (altimeter): 30.15 inches Hg (1021.1 mb)
Winds: from the SSE (150 degrees) at 5 MPH (4 knots; 2.1 m/s)
Visibility: 10 or more miles (16+ km)
Ceiling: 1300 feet AGL
Clouds: broken clouds at 1300 feet AGL
overcast cloud deck at 2100 feet AGL
Weather: automated observation with no human augmentation;
there may or may not be significant weather present at this time

METAR text: KAFF 030308Z AUTO 15003KT 10SM OVC018 M05/M07 A3015 RMK AO2
Conditions at: KAFF (USAF ACADEMY/COS, CO, US) observed 0308 UTC 03 December 2016
Temperature: -5.0°C (23°F)
Dewpoint: -7.0°C (19°F) [RH = 86%]
Pressure (altimeter): 30.15 inches Hg (1021.1 mb)
Winds: from the SSE (150 degrees) at 3 MPH (3 knots; 1.6 m/s)
Visibility: 10 or more miles (16+ km)
Ceiling: 1800 feet AGL
Clouds: overcast cloud deck at 1800 feet AGL
Weather: automated observation with no human augmentation;
there may or may not be significant weather present at this time

METAR text: KAFF 030303Z AUTO 16003KT 10SM OVC020 M05/M07 A3015 RMK AO2
Conditions at: KAFF (USAF ACADEMY/COS, CO, US) observed 0303 UTC 03 December 2016
Temperature: -5.0°C (23°F)
Dewpoint: -7.0°C (19°F) [RH = 86%]
Pressure (altimeter): 30.15 inches Hg (1021.1 mb)
Winds: from the SSE (160 degrees) at 3 MPH (3 knots; 1.6 m/s)
Visibility: 10 or more miles (16+ km)
Ceiling: 2000 feet AGL
Clouds: overcast cloud deck at 2000 feet AGL
Weather: automated observation with no human augmentation;
there may or may not be significant weather present at this time

METAR text: KAFF 030258Z AUTO 17003KT 10SM OVC018 M05/M07 A3015 RMK AO2 SLP267 60000 T10531073 51006
Conditions at: KAFF (USAF ACADEMY/COS, CO, US) observed 0258 UTC 03 December 2016
Temperature: -5.3°C (22°F)
Dewpoint: -7.3°C (19°F) [RH = 86%]
Pressure (altimeter): 30.15 inches Hg (1021.1 mb[Sea-level pressure: 1026.7 mb]
Winds: from the S (170 degrees) at 3 MPH (3 knots; 1.6 m/s)
Visibility: 10 or more miles (16+ km)
Ceiling: 1800 feet AGL
Clouds: overcast cloud deck at 1800 feet AGL
Weather: automated observation with no human augmentation;
there may or may not be significant weather present at this time

METAR text: KAFF 030158Z AUTO 16004KT 10SM OVC018 M05/M07 A3014 RMK AO2 SLP264 T10531072
Conditions at: KAFF (USAF ACADEMY/COS, CO, US) observed 0158 UTC 03 December 2016
Temperature: -5.3°C (22°F)
Dewpoint: -7.2°C (19°F) [RH = 86%]
Pressure (altimeter): 30.14 inches Hg (1020.7 mb[Sea-level pressure: 1026.4 mb]
Winds: from the SSE (160 degrees) at 5 MPH (4 knots; 2.1 m/s)
Visibility: 10 or more miles (16+ km)
Ceiling: 1800 feet AGL
Clouds: overcast cloud deck at 1800 feet AGL
Weather: automated observation with no human augmentation;
there may or may not be significant weather present at this time

METAR text: KAFF 030143Z AUTO 16005KT 10SM OVC018 M05/M07 A3014 RMK AO2
Conditions at: KAFF (USAF ACADEMY/COS, CO, US) observed 0143 UTC 03 December 2016
Temperature: -5.0°C (23°F)
Dewpoint: -7.0°C (19°F) [RH = 86%]
Pressure (altimeter): 30.14 inches Hg (1020.7 mb)
Winds: from the SSE (160 degrees) at 6 MPH (5 knots; 2.6 m/s)
Visibility: 10 or more miles (16+ km)
Ceiling: 1800 feet AGL
Clouds: overcast cloud deck at 1800 feet AGL
Weather: automated observation with no human augmentation;
there may or may not be significant weather present at this time

METAR text: KAFF 030138Z AUTO 16004KT 10SM SCT014 OVC020 M05/M07 A3014 RMK AO2 CIG 016V020
Conditions at: KAFF (USAF ACADEMY/COS, CO, US) observed 0138 UTC 03 December 2016
Temperature: -5.0°C (23°F)
Dewpoint: -7.0°C (19°F) [RH = 86%]
Pressure (altimeter): 30.14 inches Hg (1020.7 mb)
Winds: from the SSE (160 degrees) at 5 MPH (4 knots; 2.1 m/s)
Visibility: 10 or more miles (16+ km)
Ceiling: 2000 feet AGL
Clouds: scattered clouds at 1400 feet AGL
overcast cloud deck at 2000 feet AGL
Weather: automated observation with no human augmentation;
there may or may not be significant weather present at this time

METAR text: KAFF 030103Z AUTO 00000KT 10SM SCT011 OVC019 M05/M07 A3015 RMK AO2 CIG 012V020
Conditions at: KAFF (USAF ACADEMY/COS, CO, US) observed 0103 UTC 03 December 2016
Temperature: -5.0°C (23°F)
Dewpoint: -7.0°C (19°F) [RH = 86%]
Pressure (altimeter): 30.15 inches Hg (1021.1 mb)
Winds: calm
Visibility: 10 or more miles (16+ km)
Ceiling: 1900 feet AGL
Clouds: scattered clouds at 1100 feet AGL
overcast cloud deck at 1900 feet AGL
Weather: automated observation with no human augmentation;
there may or may not be significant weather present at this time

METAR text: KAFF 030058Z AUTO 00000KT 10SM SCT012 OVC020 M05/M07 A3014 RMK AO2 UPE05SNB05E37 CIG 012V020 SLP270 P0000 T10521066
Conditions at: KAFF (USAF ACADEMY/COS, CO, US) observed 0058 UTC 03 December 2016
Temperature: -5.2°C (23°F)
Dewpoint: -6.6°C (20°F) [RH = 90%]
Pressure (altimeter): 30.14 inches Hg (1020.7 mb[Sea-level pressure: 1027.0 mb]
Winds: calm
Visibility: 10 or more miles (16+ km)
Ceiling: 2000 feet AGL
Clouds: scattered clouds at 1200 feet AGL
overcast cloud deck at 2000 feet AGL
Weather: automated observation with no human augmentation;
there may or may not be significant weather present at this time

METAR text: KAFF 030057Z AUTO 00000KT 10SM SCT012 OVC020 M05/M07 A3014 RMK AO2 UPE05SNB05E37 CIG 010V020
Conditions at: KAFF (USAF ACADEMY/COS, CO, US) observed 0057 UTC 03 December 2016
Temperature: -5.0°C (23°F)
Dewpoint: -7.0°C (19°F) [RH = 86%]
Pressure (altimeter): 30.14 inches Hg (1020.7 mb)
Winds: calm
Visibility: 10 or more miles (16+ km)
Ceiling: 2000 feet AGL
Clouds: scattered clouds at 1200 feet AGL
overcast cloud deck at 2000 feet AGL
Weather: automated observation with no human augmentation;
there may or may not be significant weather present at this time

METAR text: KAFF 030042Z AUTO 00000KT 10SM BKN010 OVC016 M05/M07 A3014 RMK AO2 UPE05SNB05E37
Conditions at: KAFF (USAF ACADEMY/COS, CO, US) observed 0042 UTC 03 December 2016
Temperature: -5.0°C (23°F)
Dewpoint: -7.0°C (19°F) [RH = 86%]
Pressure (altimeter): 30.14 inches Hg (1020.7 mb)
Winds: calm
Visibility: 10 or more miles (16+ km)
Ceiling: 1000 feet AGL
Clouds: broken clouds at 1000 feet AGL
overcast cloud deck at 1600 feet AGL
Weather: automated observation with no human augmentation;
there may or may not be significant weather present at this time

METAR text: KAFF 030037Z AUTO 19003KT 10SM BKN009 OVC016 M05/M07 A3014 RMK AO2 UPE05SNB05E37 CIG 009V012
Conditions at: KAFF (USAF ACADEMY/COS, CO, US) observed 0037 UTC 03 December 2016
Temperature: -5.0°C (23°F)
Dewpoint: -7.0°C (19°F) [RH = 86%]
Pressure (altimeter): 30.14 inches Hg (1020.7 mb)
Winds: from the S (190 degrees) at 3 MPH (3 knots; 1.6 m/s)
Visibility: 10 or more miles (16+ km)
Ceiling: 900 feet AGL
Clouds: broken clouds at 900 feet AGL
overcast cloud deck at 1600 feet AGL
Weather: automated observation with no human augmentation;
there may or may not be significant weather present at this time

METAR text: KAFF 030033Z AUTO 00000KT 10SM -SN BKN009 OVC015 M05/M07 A3014 RMK AO2 UPE05SNB05 CIG 009V014
Conditions at: KAFF (USAF ACADEMY/COS, CO, US) observed 0033 UTC 03 December 2016
Temperature: -5.0°C (23°F)
Dewpoint: -7.0°C (19°F) [RH = 86%]
Pressure (altimeter): 30.14 inches Hg (1020.7 mb)
Winds: calm
Visibility: 10 or more miles (16+ km)
Ceiling: 900 feet AGL
Clouds: broken clouds at 900 feet AGL
overcast cloud deck at 1500 feet AGL
Weather: -SN  (light snow)

METAR text: KAFF 030013Z AUTO 20005KT 9SM -SN BKN010 OVC028 M05/M07 A3013 RMK AO2 UPE05SNB05 CIG 010V028 BKN V SCT
Conditions at: KAFF (USAF ACADEMY/COS, CO, US) observed 0013 UTC 03 December 2016
Temperature: -5.0°C (23°F)
Dewpoint: -7.0°C (19°F) [RH = 86%]
Pressure (altimeter): 30.13 inches Hg (1020.4 mb)
Winds: from the SSW (200 degrees) at 6 MPH (5 knots; 2.6 m/s)
Visibility: 9 miles (14 km)
Ceiling: 1000 feet AGL
Clouds: broken clouds at 1000 feet AGL
overcast cloud deck at 2800 feet AGL
Weather: -SN  (light snow)

METAR text: KAFF 022358Z AUTO 18007KT 9SM UP FEW019 OVC028 M05/M07 A3012 RMK AO2 UPB07E30UPB38 SLP269 P0000 60002 T10481069 11021 21048 50006
Conditions at: KAFF (USAF ACADEMY/COS, CO, US) observed 2358 UTC 02 December 2016
Temperature: -4.8°C (23°F)
Dewpoint: -6.9°C (20°F) [RH = 85%]
Pressure (altimeter): 30.12 inches Hg (1020.1 mb[Sea-level pressure: 1026.9 mb]
Winds: from the S (180 degrees) at 8 MPH (7 knots; 3.6 m/s)
Visibility: 9 miles (14 km)
Ceiling: 2800 feet AGL
Clouds: few clouds at 1900 feet AGL
overcast cloud deck at 2800 feet AGL
Weather: UP  (unknown precipitation)

METAR text: KAFF 022353Z AUTO 18009KT 10SM UP FEW019 OVC026 M05/M07 A3012 RMK AO2 UPB07E30UPB38
Conditions at: KAFF (USAF ACADEMY/COS, CO, US) observed 2353 UTC 02 December 2016
Temperature: -5.0°C (23°F)
Dewpoint: -7.0°C (19°F) [RH = 86%]
Pressure (altimeter): 30.12 inches Hg (1020.1 mb)
Winds: from the S (180 degrees) at 10 MPH (9 knots; 4.7 m/s)
Visibility: 10 or more miles (16+ km)
Ceiling: 2600 feet AGL
Clouds: few clouds at 1900 feet AGL
overcast cloud deck at 2600 feet AGL
Weather: UP  (unknown precipitation)

METAR text: KAFF 022348Z AUTO 18008KT 10SM UP SCT017 OVC024 M05/M07 A3012 RMK AO2 UPB07E30UPB38 CIG 024V030 OVC V SCT
Conditions at: KAFF (USAF ACADEMY/COS, CO, US) observed 2348 UTC 02 December 2016
Temperature: -5.0°C (23°F)
Dewpoint: -7.0°C (19°F) [RH = 86%]
Pressure (altimeter): 30.12 inches Hg (1020.1 mb)
Winds: from the S (180 degrees) at 9 MPH (8 knots; 4.2 m/s)
Visibility: 10 or more miles (16+ km)
Ceiling: 2400 feet AGL
Clouds: scattered clouds at 1700 feet AGL
overcast cloud deck at 2400 feet AGL
Weather: UP  (unknown precipitation)

METAR text: KAFF 022343Z AUTO 18007KT 10SM UP SCT017 OVC027 M05/M07 A3012 RMK AO2 UPB07E30UPB38 CIG 024V030
Conditions at: KAFF (USAF ACADEMY/COS, CO, US) observed 2343 UTC 02 December 2016
Temperature: -5.0°C (23°F)
Dewpoint: -7.0°C (19°F) [RH = 86%]
Pressure (altimeter): 30.12 inches Hg (1020.1 mb)
Winds: from the S (180 degrees) at 8 MPH (7 knots; 3.6 m/s)
Visibility: 10 or more miles (16+ km)
Ceiling: 2700 feet AGL
Clouds: scattered clouds at 1700 feet AGL
overcast cloud deck at 2700 feet AGL
Weather: UP  (unknown precipitation)

METAR text: KAFF 022338Z AUTO 18009KT 10SM UP SCT017 BKN024 OVC033 M04/M07 A3012 RMK AO2 UPB07E30UPB38 CIG 017V024
Conditions at: KAFF (USAF ACADEMY/COS, CO, US) observed 2338 UTC 02 December 2016
Temperature: -4.0°C (25°F)
Dewpoint: -7.0°C (19°F) [RH = 80%]
Pressure (altimeter): 30.12 inches Hg (1020.1 mb)
Winds: from the S (180 degrees) at 10 MPH (9 knots; 4.7 m/s)
Visibility: 10 or more miles (16+ km)
Ceiling: 2400 feet AGL
Clouds: scattered clouds at 1700 feet AGL
broken clouds at 2400 feet AGL
overcast cloud deck at 3300 feet AGL
Weather: UP  (unknown precipitation)

METAR text: KAFF 022330Z AUTO 17008KT 10SM SCT017 BKN024 OVC038 M04/M07 A3012 RMK AO2 UPB07E30 CIG 017V039
Conditions at: KAFF (USAF ACADEMY/COS, CO, US) observed 2330 UTC 02 December 2016
Temperature: -4.0°C (25°F)
Dewpoint: -7.0°C (19°F) [RH = 80%]
Pressure (altimeter): 30.12 inches Hg (1020.1 mb)
Winds: from the S (170 degrees) at 9 MPH (8 knots; 4.2 m/s)
Visibility: 10 or more miles (16+ km)
Ceiling: 2400 feet AGL
Clouds: scattered clouds at 1700 feet AGL
broken clouds at 2400 feet AGL
overcast cloud deck at 3800 feet AGL
Weather: automated observation with no human augmentation;
there may or may not be significant weather present at this time

METAR text: KAFF 022322Z AUTO 18008KT 8SM UP BKN017 OVC039 M04/M07 A3012 RMK AO2 UPB07 CIG 017V039
Conditions at: KAFF (USAF ACADEMY/COS, CO, US) observed 2322 UTC 02 December 2016
Temperature: -4.0°C (25°F)
Dewpoint: -7.0°C (19°F) [RH = 80%]
Pressure (altimeter): 30.12 inches Hg (1020.1 mb)
Winds: from the S (180 degrees) at 9 MPH (8 knots; 4.2 m/s)
Visibility: 8 miles (13 km)
Ceiling: 1700 feet AGL
Clouds: broken clouds at 1700 feet AGL
overcast cloud deck at 3900 feet AGL
Weather: UP  (unknown precipitation)

METAR text: KAFF 022312Z AUTO 18010KT 8SM UP SCT018 OVC038 M04/M07 A3012 RMK AO2 UPB07
Conditions at: KAFF (USAF ACADEMY/COS, CO, US) observed 2312 UTC 02 December 2016
Temperature: -4.0°C (25°F)
Dewpoint: -7.0°C (19°F) [RH = 80%]
Pressure (altimeter): 30.12 inches Hg (1020.1 mb)
Winds: from the S (180 degrees) at 12 MPH (10 knots; 5.2 m/s)
Visibility: 8 miles (13 km)
Ceiling: 3800 feet AGL
Clouds: scattered clouds at 1800 feet AGL
overcast cloud deck at 3800 feet AGL
Weather: UP  (unknown precipitation)

METAR text: KAFF 022307Z AUTO 17009KT 10SM UP BKN018 OVC036 M04/M07 A3013 RMK AO2 UPB07
Conditions at: KAFF (USAF ACADEMY/COS, CO, US) observed 2307 UTC 02 December 2016
Temperature: -4.0°C (25°F)
Dewpoint: -7.0°C (19°F) [RH = 80%]
Pressure (altimeter): 30.13 inches Hg (1020.4 mb)
Winds: from the S (170 degrees) at 10 MPH (9 knots; 4.7 m/s)
Visibility: 10 or more miles (16+ km)
Ceiling: 1800 feet AGL
Clouds: broken clouds at 1800 feet AGL
overcast cloud deck at 3600 feet AGL
Weather: UP  (unknown precipitation)

METAR text: KAFF 022258Z AUTO 17009KT 10SM BKN017 OVC031 M04/M07 A3012 RMK AO2 SNE19 CIG 017V031 BKN V SCT SLP263 P0000 T10361068
Conditions at: KAFF (USAF ACADEMY/COS, CO, US) observed 2258 UTC 02 December 2016
Temperature: -3.6°C (26°F)
Dewpoint: -6.8°C (20°F) [RH = 78%]
Pressure (altimeter): 30.12 inches Hg (1020.1 mb[Sea-level pressure: 1026.3 mb]
Winds: from the S (170 degrees) at 10 MPH (9 knots; 4.7 m/s)
Visibility: 10 or more miles (16+ km)
Ceiling: 1700 feet AGL
Clouds: broken clouds at 1700 feet AGL
overcast cloud deck at 3100 feet AGL
Weather: automated observation with no human augmentation;
there may or may not be significant weather present at this time

METAR text: KAFF 022224Z AUTO 17009KT 9SM FEW014 OVC031 M04/M06 A3011 RMK AO2 SNE19
Conditions at: KAFF (USAF ACADEMY/COS, CO, US) observed 2224 UTC 02 December 2016
Temperature: -4.0°C (25°F)
Dewpoint: -6.0°C (21°F) [RH = 86%]
Pressure (altimeter): 30.11 inches Hg (1019.7 mb)
Winds: from the S (170 degrees) at 10 MPH (9 knots; 4.7 m/s)
Visibility: 9 miles (14 km)
Ceiling: 3100 feet AGL
Clouds: few clouds at 1400 feet AGL
overcast cloud deck at 3100 feet AGL
Weather: automated observation with no human augmentation;
there may or may not be significant weather present at this time

METAR text: KAFF 022219Z AUTO 16009KT 8SM OVC029 M04/M06 A3012 RMK AO2 SNE19
Conditions at: KAFF (USAF ACADEMY/COS, CO, US) observed 2219 UTC 02 December 2016
Temperature: -4.0°C (25°F)
Dewpoint: -6.0°C (21°F) [RH = 86%]
Pressure (altimeter): 30.12 inches Hg (1020.1 mb)
Winds: from the SSE (160 degrees) at 10 MPH (9 knots; 4.7 m/s)
Visibility: 8 miles (13 km)
Ceiling: 2900 feet AGL
Clouds: overcast cloud deck at 2900 feet AGL
Weather: automated observation with no human augmentation;
there may or may not be significant weather present at this time

METAR text: KAFF 022208Z AUTO 16009KT 5SM -SN FEW005 OVC028 M04/M06 A3011 RMK AO2
Conditions at: KAFF (USAF ACADEMY/COS, CO, US) observed 2208 UTC 02 December 2016
Temperature: -4.0°C (25°F)
Dewpoint: -6.0°C (21°F) [RH = 86%]
Pressure (altimeter): 30.11 inches Hg (1019.7 mb)
Winds: from the SSE (160 degrees) at 10 MPH (9 knots; 4.7 m/s)
Visibility: 5 miles (8 km)
Ceiling: 2800 feet AGL
Clouds: few clouds at 500 feet AGL
overcast cloud deck at 2800 feet AGL
Weather: -SN  (light snow)

METAR text: KAFF 022203Z AUTO 16010KT 3SM -SN FEW005 OVC026 M03/M06 A3012 RMK AO2
Conditions at: KAFF (USAF ACADEMY/COS, CO, US) observed 2203 UTC 02 December 2016
Temperature: -3.0°C (27°F)
Dewpoint: -6.0°C (21°F) [RH = 80%]
Pressure (altimeter): 30.12 inches Hg (1020.1 mb)
Winds: from the SSE (160 degrees) at 12 MPH (10 knots; 5.2 m/s)
Visibility: 3 miles (5 km)
Ceiling: 2600 feet AGL
Clouds: few clouds at 500 feet AGL
overcast cloud deck at 2600 feet AGL
Weather: -SN  (light snow)

METAR text: KAFF 022158Z AUTO 14009KT 2 1/2SM -SN FEW005 SCT010 OVC024 M03/M06 A3011 RMK AO2 VIS 2 1/2V4 CIG 011V025 SLP259 P0001
Conditions at: KAFF (USAF ACADEMY/COS, CO, US) observed 2158 UTC 02 December 2016
Temperature: -3.0°C (27°F)
Dewpoint: -6.0°C (21°F) [RH = 80%]
Pressure (altimeter): 30.11 inches Hg (1019.7 mb[Sea-level pressure: 1025.9 mb]
Winds: from the SE (140 degrees) at 10 MPH (9 knots; 4.7 m/s)
Visibility: 2.50 miles (4.02 km)
Ceiling: 2400 feet AGL
Clouds: few clouds at 500 feet AGL
scattered clouds at 1000 feet AGL
overcast cloud deck at 2400 feet AGL
Weather: -SN  (light snow)

METAR text: KAFF 022153Z AUTO 14008KT 3SM -SN SCT005 SCT011 OVC025 M03/M06 A3011 RMK AO2 CIG 010V025
Conditions at: KAFF (USAF ACADEMY/COS, CO, US) observed 2153 UTC 02 December 2016
Temperature: -3.0°C (27°F)
Dewpoint: -6.0°C (21°F) [RH = 80%]
Pressure (altimeter): 30.11 inches Hg (1019.7 mb)
Winds: from the SE (140 degrees) at 9 MPH (8 knots; 4.2 m/s)
Visibility: 3 miles (5 km)
Ceiling: 2500 feet AGL
Clouds: scattered clouds at 500 feet AGL
scattered clouds at 1100 feet AGL
overcast cloud deck at 2500 feet AGL
Weather: -SN  (light snow)

METAR text: KAFF 022148Z AUTO 14006KT 4SM -SN SCT005 BKN011 OVC026 M03/M06 A3011 RMK AO2 CIG 005V011
Conditions at: KAFF (USAF ACADEMY/COS, CO, US) observed 2148 UTC 02 December 2016
Temperature: -3.0°C (27°F)
Dewpoint: -6.0°C (21°F) [RH = 80%]
Pressure (altimeter): 30.11 inches Hg (1019.7 mb)
Winds: from the SE (140 degrees) at 7 MPH (6 knots; 3.1 m/s)
Visibility: 4 miles (6 km)
Ceiling: 1100 feet AGL
Clouds: scattered clouds at 500 feet AGL
broken clouds at 1100 feet AGL
overcast cloud deck at 2600 feet AGL
Weather: -SN  (light snow)

METAR text: KAFF 022143Z AUTO 15010KT 4SM -SN BKN005 BKN010 OVC027 M03/M05 A3011 RMK AO2 CIG 005V008
Conditions at: KAFF (USAF ACADEMY/COS, CO, US) observed 2143 UTC 02 December 2016
Temperature: -3.0°C (27°F)
Dewpoint: -5.0°C (23°F) [RH = 86%]
Pressure (altimeter): 30.11 inches Hg (1019.7 mb)
Winds: from the SSE (150 degrees) at 12 MPH (10 knots; 5.2 m/s)
Visibility: 4 miles (6 km)
Ceiling: 500 feet AGL
Clouds: broken clouds at 500 feet AGL
broken clouds at 1000 feet AGL
overcast cloud deck at 2700 feet AGL
Weather: -SN  (light snow)

METAR text: KAFF 022138Z AUTO 17005KT 3SM -SN BKN005 BKN010 OVC025 M03/M05 A3011 RMK AO2 CIG 005V008
Conditions at: KAFF (USAF ACADEMY/COS, CO, US) observed 2138 UTC 02 December 2016
Temperature: -3.0°C (27°F)
Dewpoint: -5.0°C (23°F) [RH = 86%]
Pressure (altimeter): 30.11 inches Hg (1019.7 mb)
Winds: from the S (170 degrees) at 6 MPH (5 knots; 2.6 m/s)
Visibility: 3 miles (5 km)
Ceiling: 500 feet AGL
Clouds: broken clouds at 500 feet AGL
broken clouds at 1000 feet AGL
overcast cloud deck at 2500 feet AGL
Weather: -SN  (light snow)

METAR text: KAFF 022133Z AUTO 15005KT 4SM -SN SCT003 BKN008 OVC014 M03/M05 A3011 RMK AO2
Conditions at: KAFF (USAF ACADEMY/COS, CO, US) observed 2133 UTC 02 December 2016
Temperature: -3.0°C (27°F)
Dewpoint: -5.0°C (23°F) [RH = 86%]
Pressure (altimeter): 30.11 inches Hg (1019.7 mb)
Winds: from the SSE (150 degrees) at 6 MPH (5 knots; 2.6 m/s)
Visibility: 4 miles (6 km)
Ceiling: 800 feet AGL
Clouds: scattered clouds at 300 feet AGL
broken clouds at 800 feet AGL
overcast cloud deck at 1400 feet AGL
Weather: -SN  (light snow)

METAR text: KAFF 022123Z AUTO 16007KT 6SM -SN FEW003 BKN009 BKN015 OVC027 M03/M05 A3011 RMK AO2 CIG 009V015 BKN009 V SCT
Conditions at: KAFF (USAF ACADEMY/COS, CO, US) observed 2123 UTC 02 December 2016
Temperature: -3.0°C (27°F)
Dewpoint: -5.0°C (23°F) [RH = 86%]
Pressure (altimeter): 30.11 inches Hg (1019.7 mb)
Winds: from the SSE (160 degrees) at 8 MPH (7 knots; 3.6 m/s)
Visibility: 6 miles (10 km)
Ceiling: 900 feet AGL
Clouds: few clouds at 300 feet AGL
broken clouds at 900 feet AGL
broken clouds at 1500 feet AGL
overcast cloud deck at 2700 feet AGL
Weather: -SN  (light snow)

METAR text: KAFF 022118Z AUTO 18005KT 7SM -SN FEW003 SCT009 BKN015 OVC025 M03/M05 A3011 RMK AO2 CIG 009V015
Conditions at: KAFF (USAF ACADEMY/COS, CO, US) observed 2118 UTC 02 December 2016
Temperature: -3.0°C (27°F)
Dewpoint: -5.0°C (23°F) [RH = 86%]
Pressure (altimeter): 30.11 inches Hg (1019.7 mb)
Winds: from the S (180 degrees) at 6 MPH (5 knots; 2.6 m/s)
Visibility: 7 miles (11 km)
Ceiling: 1500 feet AGL
Clouds: few clouds at 300 feet AGL
scattered clouds at 900 feet AGL
broken clouds at 1500 feet AGL
overcast cloud deck at 2500 feet AGL
Weather: -SN  (light snow)

METAR text: KAFF 022113Z AUTO 18006KT 7SM -SN SCT003 BKN009 BKN015 BKN022 OVC029 M03/M05 A3011 RMK AO2 CIG 009V015 BKN009 V SCT
Conditions at: KAFF (USAF ACADEMY/COS, CO, US) observed 2113 UTC 02 December 2016
Temperature: -3.0°C (27°F)
Dewpoint: -5.0°C (23°F) [RH = 86%]
Pressure (altimeter): 30.11 inches Hg (1019.7 mb)
Winds: from the S (180 degrees) at 7 MPH (6 knots; 3.1 m/s)
Visibility: 7 miles (11 km)
Ceiling: 900 feet AGL
Clouds: scattered clouds at 300 feet AGL
broken clouds at 900 feet AGL
broken clouds at 1500 feet AGL
broken clouds at 2200 feet AGL
Weather: -SN  (light snow)

METAR text: KAFF 022103Z AUTO 19005KT 8SM -SN FEW003 SCT009 BKN014 OVC023 M03/M06 A3010 RMK AO2 CIG 009V015
Conditions at: KAFF (USAF ACADEMY/COS, CO, US) observed 2103 UTC 02 December 2016
Temperature: -3.0°C (27°F)
Dewpoint: -6.0°C (21°F) [RH = 80%]
Pressure (altimeter): 30.10 inches Hg (1019.4 mb)
Winds: from the S (190 degrees) at 6 MPH (5 knots; 2.6 m/s)
Visibility: 8 miles (13 km)
Ceiling: 1400 feet AGL
Clouds: few clouds at 300 feet AGL
scattered clouds at 900 feet AGL
broken clouds at 1400 feet AGL
overcast cloud deck at 2300 feet AGL
Weather: -SN  (light snow)

METAR text: KAFF 022058Z AUTO 19007KT 6SM -SN FEW003 BKN009 BKN015 OVC022 M03/M05 A3010 RMK AO2 SLP255 P0000 60001 T10281055 57015
Conditions at: KAFF (USAF ACADEMY/COS, CO, US) observed 2058 UTC 02 December 2016
Temperature: -2.8°C (27°F)
Dewpoint: -5.5°C (22°F) [RH = 82%]
Pressure (altimeter): 30.10 inches Hg (1019.4 mb[Sea-level pressure: 1025.5 mb]
Winds: from the S (190 degrees) at 8 MPH (7 knots; 3.6 m/s)
Visibility: 6 miles (10 km)
Ceiling: 900 feet AGL
Clouds: few clouds at 300 feet AGL
broken clouds at 900 feet AGL
broken clouds at 1500 feet AGL
overcast cloud deck at 2200 feet AGL
Weather: -SN  (light snow)

METAR text: KAFF 022043Z AUTO 20005KT 5SM -SN FEW003 BKN009 BKN014 OVC022 M03/M06 A3011 RMK AO2 CIG 009V022 BKN009 V SCT
Conditions at: KAFF (USAF ACADEMY/COS, CO, US) observed 2043 UTC 02 December 2016
Temperature: -3.0°C (27°F)
Dewpoint: -6.0°C (21°F) [RH = 80%]
Pressure (altimeter): 30.11 inches Hg (1019.7 mb)
Winds: from the SSW (200 degrees) at 6 MPH (5 knots; 2.6 m/s)
Visibility: 5 miles (8 km)
Ceiling: 900 feet AGL
Clouds: few clouds at 300 feet AGL
broken clouds at 900 feet AGL
broken clouds at 1400 feet AGL
overcast cloud deck at 2200 feet AGL
Weather: -SN  (light snow)

METAR text: KAFF 022038Z AUTO 20006KT 4SM -SN FEW003 SCT009 SCT014 OVC022 M03/M06 A3011 RMK AO2
Conditions at: KAFF (USAF ACADEMY/COS, CO, US) observed 2038 UTC 02 December 2016
Temperature: -3.0°C (27°F)
Dewpoint: -6.0°C (21°F) [RH = 80%]
Pressure (altimeter): 30.11 inches Hg (1019.7 mb)
Winds: from the SSW (200 degrees) at 7 MPH (6 knots; 3.1 m/s)
Visibility: 4 miles (6 km)
Ceiling: 2200 feet AGL
Clouds: few clouds at 300 feet AGL
scattered clouds at 900 feet AGL
scattered clouds at 1400 feet AGL
overcast cloud deck at 2200 feet AGL
Weather: -SN  (light snow)

METAR text: KAFF 022028Z AUTO 20006KT 4SM -SN FEW003 SCT010 OVC023 M03/M06 A3011 RMK AO2
Conditions at: KAFF (USAF ACADEMY/COS, CO, US) observed 2028 UTC 02 December 2016
Temperature: -3.0°C (27°F)
Dewpoint: -6.0°C (21°F) [RH = 80%]
Pressure (altimeter): 30.11 inches Hg (1019.7 mb)
Winds: from the SSW (200 degrees) at 7 MPH (6 knots; 3.1 m/s)
Visibility: 4 miles (6 km)
Ceiling: 2300 feet AGL
Clouds: few clouds at 300 feet AGL
scattered clouds at 1000 feet AGL
overcast cloud deck at 2300 feet AGL
Weather: -SN  (light snow)

METAR text: KAFF 022023Z AUTO 21006KT 3SM -SN FEW003 SCT010 OVC022 M03/M06 A3011 RMK AO2 CIG 012V022
Conditions at: KAFF (USAF ACADEMY/COS, CO, US) observed 2023 UTC 02 December 2016
Temperature: -3.0°C (27°F)
Dewpoint: -6.0°C (21°F) [RH = 80%]
Pressure (altimeter): 30.11 inches Hg (1019.7 mb)
Winds: from the SSW (210 degrees) at 7 MPH (6 knots; 3.1 m/s)
Visibility: 3 miles (5 km)
Ceiling: 2200 feet AGL
Clouds: few clouds at 300 feet AGL
scattered clouds at 1000 feet AGL
overcast cloud deck at 2200 feet AGL
Weather: -SN  (light snow)

METAR text: KAFF 022018Z AUTO 21006KT 2 1/2SM -SN FEW003 SCT008 BKN012 OVC020 M03/M06 A3011 RMK AO2 VIS 2 1/2V3 CIG 010V020 BKN V SCT
Conditions at: KAFF (USAF ACADEMY/COS, CO, US) observed 2018 UTC 02 December 2016
Temperature: -3.0°C (27°F)
Dewpoint: -6.0°C (21°F) [RH = 80%]
Pressure (altimeter): 30.11 inches Hg (1019.7 mb)
Winds: from the SSW (210 degrees) at 7 MPH (6 knots; 3.1 m/s)
Visibility: 2.50 miles (4.02 km)
Ceiling: 1200 feet AGL
Clouds: few clouds at 300 feet AGL
scattered clouds at 800 feet AGL
broken clouds at 1200 feet AGL
overcast cloud deck at 2000 feet AGL
Weather: -SN  (light snow)

METAR text: KAFF 022008Z AUTO 22005KT 3SM -SN SCT003 BKN010 OVC021 M03/M06 A3011 RMK AO2 CIG 010V023
Conditions at: KAFF (USAF ACADEMY/COS, CO, US) observed 2008 UTC 02 December 2016
Temperature: -3.0°C (27°F)
Dewpoint: -6.0°C (21°F) [RH = 80%]
Pressure (altimeter): 30.11 inches Hg (1019.7 mb)
Winds: from the SW (220 degrees) at 6 MPH (5 knots; 2.6 m/s)
Visibility: 3 miles (5 km)
Ceiling: 1000 feet AGL
Clouds: scattered clouds at 300 feet AGL
broken clouds at 1000 feet AGL
overcast cloud deck at 2100 feet AGL
Weather: -SN  (light snow)

METAR text: KAFF 021958Z AUTO 22004KT 4SM -SN FEW003 OVC022 M03/M06 A3012 RMK AO2 SLP263 P0001
Conditions at: KAFF (USAF ACADEMY/COS, CO, US) observed 1958 UTC 02 December 2016
Temperature: -3.0°C (27°F)
Dewpoint: -6.0°C (21°F) [RH = 80%]
Pressure (altimeter): 30.12 inches Hg (1020.1 mb[Sea-level pressure: 1026.3 mb]
Winds: from the SW (220 degrees) at 5 MPH (4 knots; 2.1 m/s)
Visibility: 4 miles (6 km)
Ceiling: 2200 feet AGL
Clouds: few clouds at 300 feet AGL
overcast cloud deck at 2200 feet AGL
Weather: -SN  (light snow)

METAR text: KAFF 021943Z AUTO 20005KT 4SM -SN SCT003 OVC022 M03/M06 A3013 RMK AO2
Conditions at: KAFF (USAF ACADEMY/COS, CO, US) observed 1943 UTC 02 December 2016
Temperature: -3.0°C (27°F)
Dewpoint: -6.0°C (21°F) [RH = 80%]
Pressure (altimeter): 30.13 inches Hg (1020.4 mb)
Winds: from the SSW (200 degrees) at 6 MPH (5 knots; 2.6 m/s)
Visibility: 4 miles (6 km)
Ceiling: 2200 feet AGL
Clouds: scattered clouds at 300 feet AGL
overcast cloud deck at 2200 feet AGL
Weather: -SN  (light snow)

METAR text: KAFF 021938Z AUTO 20005KT 2 1/2SM -SN SCT003 SCT018 OVC023 M03/M06 A3013 RMK AO2 VIS 2V2 1/2 CIG 003V023
Conditions at: KAFF (USAF ACADEMY/COS, CO, US) observed 1938 UTC 02 December 2016
Temperature: -3.0°C (27°F)
Dewpoint: -6.0°C (21°F) [RH = 80%]
Pressure (altimeter): 30.13 inches Hg (1020.4 mb)
Winds: from the SSW (200 degrees) at 6 MPH (5 knots; 2.6 m/s)
Visibility: 2.50 miles (4.02 km)
Ceiling: 2300 feet AGL
Clouds: scattered clouds at 300 feet AGL
scattered clouds at 1800 feet AGL
overcast cloud deck at 2300 feet AGL
Weather: -SN  (light snow)

METAR text: KAFF 021933Z AUTO 21005KT 2SM -SN BKN003 OVC023 M03/M06 A3013 RMK AO2 VIS 2V2 1/2 CIG 003V021 BKN V SCT
Conditions at: KAFF (USAF ACADEMY/COS, CO, US) observed 1933 UTC 02 December 2016
Temperature: -3.0°C (27°F)
Dewpoint: -6.0°C (21°F) [RH = 80%]
Pressure (altimeter): 30.13 inches Hg (1020.4 mb)
Winds: from the SSW (210 degrees) at 6 MPH (5 knots; 2.6 m/s)
Visibility: 2.00 miles (3.22 km)
Ceiling: 300 feet AGL
Clouds: broken clouds at 300 feet AGL
overcast cloud deck at 2300 feet AGL
Weather: -SN  (light snow)

METAR text: KAFF 021928Z AUTO 22004KT 2 1/2SM -SN SCT003 OVC021 M03/M06 A3014 RMK AO2 VIS 2 1/2V3 CIG 002V021
Conditions at: KAFF (USAF ACADEMY/COS, CO, US) observed 1928 UTC 02 December 2016
Temperature: -3.0°C (27°F)
Dewpoint: -6.0°C (21°F) [RH = 80%]
Pressure (altimeter): 30.14 inches Hg (1020.7 mb)
Winds: from the SW (220 degrees) at 5 MPH (4 knots; 2.1 m/s)
Visibility: 2.50 miles (4.02 km)
Ceiling: 2100 feet AGL
Clouds: scattered clouds at 300 feet AGL
overcast cloud deck at 2100 feet AGL
Weather: -SN  (light snow)

METAR text: KAFF 021923Z AUTO 21006KT 3SM -SN BKN002 OVC015 M04/M06 A3014 RMK AO2
Conditions at: KAFF (USAF ACADEMY/COS, CO, US) observed 1923 UTC 02 December 2016
Temperature: -4.0°C (25°F)
Dewpoint: -6.0°C (21°F) [RH = 86%]
Pressure (altimeter): 30.14 inches Hg (1020.7 mb)
Winds: from the SSW (210 degrees) at 7 MPH (6 knots; 3.1 m/s)
Visibility: 3 miles (5 km)
Ceiling: 200 feet AGL
Clouds: broken clouds at 200 feet AGL
overcast cloud deck at 1500 feet AGL
Weather: -SN  (light snow)

METAR text: KAFF 021918Z AUTO 20005KT 2 1/2SM -SN BR BKN002 OVC015 M04/M06 A3014 RMK AO2 VIS 1 3/4V2 1/2 CIG 002V015 BKN V SCT
Conditions at: KAFF (USAF ACADEMY/COS, CO, US) observed 1918 UTC 02 December 2016
Temperature: -4.0°C (25°F)
Dewpoint: -6.0°C (21°F) [RH = 86%]
Pressure (altimeter): 30.14 inches Hg (1020.7 mb)
Winds: from the SSW (200 degrees) at 6 MPH (5 knots; 2.6 m/s)
Visibility: 2.50 miles (4.02 km)
Ceiling: 200 feet AGL
Clouds: broken clouds at 200 feet AGL
overcast cloud deck at 1500 feet AGL
Weather: -SN BR  (light snow, mist)

METAR text: KAFF 021913Z AUTO 21004KT 2SM -SN SCT002 OVC015 M04/M06 A3014 RMK AO2 CIG 011V015
Conditions at: KAFF (USAF ACADEMY/COS, CO, US) observed 1913 UTC 02 December 2016
Temperature: -4.0°C (25°F)
Dewpoint: -6.0°C (21°F) [RH = 86%]
Pressure (altimeter): 30.14 inches Hg (1020.7 mb)
Winds: from the SSW (210 degrees) at 5 MPH (4 knots; 2.1 m/s)
Visibility: 2.00 miles (3.22 km)
Ceiling: 1500 feet AGL
Clouds: scattered clouds at 200 feet AGL
overcast cloud deck at 1500 feet AGL
Weather: -SN  (light snow)

METAR text: KAFF 021858Z AUTO 18004KT 1 1/4SM -SN FEW002 OVC012 M04/M06 A3014 RMK AO2 UPB14E27SNB27 SLP270 P0000 T10391064
Conditions at: KAFF (USAF ACADEMY/COS, CO, US) observed 1858 UTC 02 December 2016
Temperature: -3.9°C (25°F)
Dewpoint: -6.4°C (20°F) [RH = 83%]
Pressure (altimeter): 30.14 inches Hg (1020.7 mb[Sea-level pressure: 1027.0 mb]
Winds: from the S (180 degrees) at 5 MPH (4 knots; 2.1 m/s)
Visibility: 1.25 miles (2.01 km)
Ceiling: 1200 feet AGL
Clouds: few clouds at 200 feet AGL
overcast cloud deck at 1200 feet AGL
Weather: -SN  (light snow)

METAR text: KAFF 021849Z AUTO 21004KT 1SM -SN FEW002 OVC014 M04/M07 A3015 RMK AO2 VIS 1V2 1/2 UPB14E27SNB27 RVRNO
Conditions at: KAFF (USAF ACADEMY/COS, CO, US) observed 1849 UTC 02 December 2016
Temperature: -4.0°C (25°F)
Dewpoint: -7.0°C (19°F) [RH = 80%]
Pressure (altimeter): 30.15 inches Hg (1021.1 mb)
Winds: from the SSW (210 degrees) at 5 MPH (4 knots; 2.1 m/s)
Visibility: 1.00 miles (1.61 km)
Ceiling: 1400 feet AGL
Clouds: few clouds at 200 feet AGL
overcast cloud deck at 1400 feet AGL
Weather: -SN  (light snow)

METAR text: KAFF 021844Z AUTO 20003KT 1 1/2SM -SN FEW002 SCT007 OVC016 M04/M07 A3015 RMK AO2 VIS 1 1/2V2 1/2 UPB14E27SNB27
Conditions at: KAFF (USAF ACADEMY/COS, CO, US) observed 1844 UTC 02 December 2016
Temperature: -4.0°C (25°F)
Dewpoint: -7.0°C (19°F) [RH = 80%]
Pressure (altimeter): 30.15 inches Hg (1021.1 mb)
Winds: from the SSW (200 degrees) at 3 MPH (3 knots; 1.6 m/s)
Visibility: 1.50 miles (2.41 km)
Ceiling: 1600 feet AGL
Clouds: few clouds at 200 feet AGL
scattered clouds at 700 feet AGL
overcast cloud deck at 1600 feet AGL
Weather: -SN  (light snow)

METAR text: KAFF 021829Z AUTO 23006KT 2 1/2SM -SN BKN018 BKN027 OVC032 M03/M08 A3016 RMK AO2 VIS 2 1/2V4 UPB14E27SNB27 CIG 018V027
Conditions at: KAFF (USAF ACADEMY/COS, CO, US) observed 1829 UTC 02 December 2016
Temperature: -3.0°C (27°F)
Dewpoint: -8.0°C (18°F) [RH = 68%]
Pressure (altimeter): 30.16 inches Hg (1021.4 mb)
Winds: from the SW (230 degrees) at 7 MPH (6 knots; 3.1 m/s)
Visibility: 2.50 miles (4.02 km)
Ceiling: 1800 feet AGL
Clouds: broken clouds at 1800 feet AGL
broken clouds at 2700 feet AGL
overcast cloud deck at 3200 feet AGL
Weather: -SN  (light snow)

METAR text: KAFF 021824Z AUTO 21008KT 4SM UP SCT019 BKN027 OVC033 M03/M08 A3016 RMK AO2 UPB14 CIG 022V031
Conditions at: KAFF (USAF ACADEMY/COS, CO, US) observed 1824 UTC 02 December 2016
Temperature: -3.0°C (27°F)
Dewpoint: -8.0°C (18°F) [RH = 68%]
Pressure (altimeter): 30.16 inches Hg (1021.4 mb)
Winds: from the SSW (210 degrees) at 9 MPH (8 knots; 4.2 m/s)
Visibility: 4 miles (6 km)
Ceiling: 2700 feet AGL
Clouds: scattered clouds at 1900 feet AGL
broken clouds at 2700 feet AGL
overcast cloud deck at 3300 feet AGL
Weather: UP  (unknown precipitation)

METAR text: KAFF 021819Z AUTO 13007KT 4SM UP SCT021 OVC031 M03/M08 A3016 RMK AO2 UPB14
Conditions at: KAFF (USAF ACADEMY/COS, CO, US) observed 1819 UTC 02 December 2016
Temperature: -3.0°C (27°F)
Dewpoint: -8.0°C (18°F) [RH = 68%]
Pressure (altimeter): 30.16 inches Hg (1021.4 mb)
Winds: from the SE (130 degrees) at 8 MPH (7 knots; 3.6 m/s)
Visibility: 4 miles (6 km)
Ceiling: 3100 feet AGL
Clouds: scattered clouds at 2100 feet AGL
overcast cloud deck at 3100 feet AGL
Weather: UP  (unknown precipitation)

METAR text: KAFF 021814Z AUTO 14009KT 8SM UP BKN026 OVC033 M02/M09 A3016 RMK AO2 UPB14 CIG 026V033
Conditions at: KAFF (USAF ACADEMY/COS, CO, US) observed 1814 UTC 02 December 2016
Temperature: -2.0°C (28°F)
Dewpoint: -9.0°C (16°F) [RH = 59%]
Pressure (altimeter): 30.16 inches Hg (1021.4 mb)
Winds: from the SE (140 degrees) at 10 MPH (9 knots; 4.7 m/s)
Visibility: 8 miles (13 km)
Ceiling: 2600 feet AGL
Clouds: broken clouds at 2600 feet AGL
overcast cloud deck at 3300 feet AGL
Weather: UP  (unknown precipitation)

METAR text: KAFF 021813Z AUTO 16007KT 10SM BKN027 OVC033 M02/M10 A3016 RMK AO2 CIG 027V033 BKN V SCT
Conditions at: KAFF (USAF ACADEMY/COS, CO, US) observed 1813 UTC 02 December 2016
Temperature: -2.0°C (28°F)
Dewpoint: -10.0°C (14°F) [RH = 54%]
Pressure (altimeter): 30.16 inches Hg (1021.4 mb)
Winds: from the SSE (160 degrees) at 8 MPH (7 knots; 3.6 m/s)
Visibility: 10 or more miles (16+ km)
Ceiling: 2700 feet AGL
Clouds: broken clouds at 2700 feet AGL
overcast cloud deck at 3300 feet AGL
Weather: automated observation with no human augmentation;
there may or may not be significant weather present at this time

METAR text: KAFF 021808Z AUTO 20006KT 10SM OVC031 M02/M10 A3016 RMK AO2
Conditions at: KAFF (USAF ACADEMY/COS, CO, US) observed 1808 UTC 02 December 2016
Temperature: -2.0°C (28°F)
Dewpoint: -10.0°C (14°F) [RH = 54%]
Pressure (altimeter): 30.16 inches Hg (1021.4 mb)
Winds: from the SSW (200 degrees) at 7 MPH (6 knots; 3.1 m/s)
Visibility: 10 or more miles (16+ km)
Ceiling: 3100 feet AGL
Clouds: overcast cloud deck at 3100 feet AGL
Weather: automated observation with no human augmentation;
there may or may not be significant weather present at this time

METAR text: KAFF 021758Z AUTO 20006KT 10SM FEW019 SCT027 OVC034 M02/M11 A3015 RMK AO2 SLP267 52009
Conditions at: KAFF (USAF ACADEMY/COS, CO, US) observed 1758 UTC 02 December 2016
Temperature: -2.0°C (28°F)
Dewpoint: -11.0°C (12°F) [RH = 50%]
Pressure (altimeter): 30.15 inches Hg (1021.1 mb[Sea-level pressure: 1026.7 mb]
Winds: from the SSW (200 degrees) at 7 MPH (6 knots; 3.1 m/s)
Visibility: 10 or more miles (16+ km)
Ceiling: 3400 feet AGL
Clouds: few clouds at 1900 feet AGL
scattered clouds at 2700 feet AGL
overcast cloud deck at 3400 feet AGL
Weather: automated observation with no human augmentation;
there may or may not be significant weather present at this time

METAR text: KAFF 021723Z AUTO 00000KT 10SM SCT037 OVC049 M02/M11 A3015 RMK AO2
Conditions at: KAFF (USAF ACADEMY/COS, CO, US) observed 1723 UTC 02 December 2016
Temperature: -2.0°C (28°F)
Dewpoint: -11.0°C (12°F) [RH = 50%]
Pressure (altimeter): 30.15 inches Hg (1021.1 mb)
Winds: calm
Visibility: 10 or more miles (16+ km)
Ceiling: 4900 feet AGL
Clouds: scattered clouds at 3700 feet AGL
overcast cloud deck at 4900 feet AGL
Weather: automated observation with no human augmentation;
there may or may not be significant weather present at this time

METAR text: KAFF 021718Z 00000KT 10SM SCT037 OVC050 M02/M12 A3015 RMK AO2A
Conditions at: KAFF (USAF ACADEMY/COS, CO, US) observed 1718 UTC 02 December 2016
Temperature: -2.0°C (28°F)
Dewpoint: -12.0°C (10°F) [RH = 46%]
Pressure (altimeter): 30.15 inches Hg (1021.1 mb)
Winds: calm
Visibility: 10 or more miles (16+ km)
Ceiling: 5000 feet AGL
Clouds: scattered clouds at 3700 feet AGL
overcast cloud deck at 5000 feet AGL
Weather: no significant weather observed at this time

METAR text: KAFF 021658Z AUTO 32003KT 10SM BKN036 OVC050 M02/M13 A3015 RMK AO2 SLP261 T10251129
Conditions at: KAFF (USAF ACADEMY/COS, CO, US) observed 1658 UTC 02 December 2016
Temperature: -2.5°C (28°F)
Dewpoint: -12.9°C (9°F) [RH = 45%]
Pressure (altimeter): 30.15 inches Hg (1021.1 mb[Sea-level pressure: 1026.1 mb]
Winds: from the NW (320 degrees) at 3 MPH (3 knots; 1.6 m/s)
Visibility: 10 or more miles (16+ km)
Ceiling: 3600 feet AGL
Clouds: broken clouds at 3600 feet AGL
overcast cloud deck at 5000 feet AGL
Weather: automated observation with no human augmentation;
there may or may not be significant weather present at this time

METAR text: KAFF 021648Z AUTO 33004KT 10SM OVC036 M03/M13 A3014 RMK AO2
Conditions at: KAFF (USAF ACADEMY/COS, CO, US) observed 1648 UTC 02 December 2016
Temperature: -3.0°C (27°F)
Dewpoint: -13.0°C (9°F) [RH = 46%]
Pressure (altimeter): 30.14 inches Hg (1020.7 mb)
Winds: from the NNW (330 degrees) at 5 MPH (4 knots; 2.1 m/s)
Visibility: 10 or more miles (16+ km)
Ceiling: 3600 feet AGL
Clouds: overcast cloud deck at 3600 feet AGL
Weather: automated observation with no human augmentation;
there may or may not be significant weather present at this time

METAR text: KAFF 021638Z AUTO 33006KT 10SM BKN034 OVC042 M03/M13 A3014 RMK AO2
Conditions at: KAFF (USAF ACADEMY/COS, CO, US) observed 1638 UTC 02 December 2016
Temperature: -3.0°C (27°F)
Dewpoint: -13.0°C (9°F) [RH = 46%]
Pressure (altimeter): 30.14 inches Hg (1020.7 mb)
Winds: from the NNW (330 degrees) at 7 MPH (6 knots; 3.1 m/s)
Visibility: 10 or more miles (16+ km)
Ceiling: 3400 feet AGL
Clouds: broken clouds at 3400 feet AGL
overcast cloud deck at 4200 feet AGL
Weather: automated observation with no human augmentation;
there may or may not be significant weather present at this time

METAR text: KAFF 021628Z AUTO 33007KT 10SM BKN034 OVC043 M03/M13 A3014 RMK AO2
Conditions at: KAFF (USAF ACADEMY/COS, CO, US) observed 1628 UTC 02 December 2016
Temperature: -3.0°C (27°F)
Dewpoint: -13.0°C (9°F) [RH = 46%]
Pressure (altimeter): 30.14 inches Hg (1020.7 mb)
Winds: from the NNW (330 degrees) at 8 MPH (7 knots; 3.6 m/s)
Visibility: 10 or more miles (16+ km)
Ceiling: 3400 feet AGL
Clouds: broken clouds at 3400 feet AGL
overcast cloud deck at 4300 feet AGL
Weather: automated observation with no human augmentation;
there may or may not be significant weather present at this time

METAR text: KAFF 021623Z AUTO 33007KT 10SM BKN036 OVC043 M03/M13 A3014 RMK AO2
Conditions at: KAFF (USAF ACADEMY/COS, CO, US) observed 1623 UTC 02 December 2016
Temperature: -3.0°C (27°F)
Dewpoint: -13.0°C (9°F) [RH = 46%]
Pressure (altimeter): 30.14 inches Hg (1020.7 mb)
Winds: from the NNW (330 degrees) at 8 MPH (7 knots; 3.6 m/s)
Visibility: 10 or more miles (16+ km)
Ceiling: 3600 feet AGL
Clouds: broken clouds at 3600 feet AGL
overcast cloud deck at 4300 feet AGL
Weather: automated observation with no human augmentation;
there may or may not be significant weather present at this time

METAR text: KAFF 021618Z AUTO 32007KT 10SM BKN033 OVC043 M04/M13 A3014 RMK AO2
Conditions at: KAFF (USAF ACADEMY/COS, CO, US) observed 1618 UTC 02 December 2016
Temperature: -4.0°C (25°F)
Dewpoint: -13.0°C (9°F) [RH = 50%]
Pressure (altimeter): 30.14 inches Hg (1020.7 mb)
Winds: from the NW (320 degrees) at 8 MPH (7 knots; 3.6 m/s)
Visibility: 10 or more miles (16+ km)
Ceiling: 3300 feet AGL
Clouds: broken clouds at 3300 feet AGL
overcast cloud deck at 4300 feet AGL
Weather: automated observation with no human augmentation;
there may or may not be significant weather present at this time

METAR text: KAFF 021558Z AUTO 33005KT 10SM BKN045 OVC060 M04/M13 A3013 RMK AO2 SLP260 T10451129
Conditions at: KAFF (USAF ACADEMY/COS, CO, US) observed 1558 UTC 02 December 2016
Temperature: -4.5°C (24°F)
Dewpoint: -12.9°C (9°F) [RH = 52%]
Pressure (altimeter): 30.13 inches Hg (1020.4 mb[Sea-level pressure: 1026.0 mb]
Winds: from the NNW (330 degrees) at 6 MPH (5 knots; 2.6 m/s)
Visibility: 10 or more miles (16+ km)
Ceiling: 4500 feet AGL
Clouds: broken clouds at 4500 feet AGL
overcast cloud deck at 6000 feet AGL
Weather: automated observation with no human augmentation;
there may or may not be significant weather present at this time